sensor_id;sensor_type;location;lat;lon;timestamp;temperature;humidity
19945;DHT22;10134;50.952;6.930;2023-12-20T00:00:58;8.60;99.90
19945;DHT22;10134;50.952;6.930;2023-12-20T00:03:27;8.60;99.90
19945;DHT22;10134;50.952;6.930;2023-12-20T00:06:04;8.60;99.90
19945;DHT22;10134;50.952;6.930;2023-12-20T00:08:33;8.60;99.90
19945;DHT22;10134;50.952;6.930;2023-12-20T00:11:03;8.70;99.90
19945;DHT22;10134;50.952;6.930;2023-12-20T00:13:31;8.70;99.90
19945;DHT22;10134;50.952;6.930;2023-12-20T00:16:00;8.60;99.90
19945;DHT22;10134;50.952;6.930;2023-12-20T00:18:29;8.60;99.90
19945;DHT22;10134;50.952;6.930;2023-12-20T00:20:57;8.60;99.90
19945;DHT22;10134;50.952;6.930;2023-12-20T00:23:26;8.60;99.90
19945;DHT22;10134;50.952;6.930;2023-12-20T00:25:55;8.60;99.90
19945;DHT22;10134;50.952;6.930;2023-12-20T00:28:25;8.70;99.90
19945;DHT22;10134;50.952;6.930;2023-12-20T00:30:54;8.70;99.90
19945;DHT22;10134;50.952;6.930;2023-12-20T00:33:22;8.70;99.90
19945;DHT22;10134;50.952;6.930;2023-12-20T00:35:51;8.70;99.90
19945;DHT22;10134;50.952;6.930;2023-12-20T00:38:20;8.70;99.90
19945;DHT22;10134;50.952;6.930;2023-12-20T00:40:49;8.60;99.90
19945;DHT22;10134;50.952;6.930;2023-12-20T00:43:18;8.60;99.90
19945;DHT22;10134;50.952;6.930;2023-12-20T00:45:48;8.60;99.90
19945;DHT22;10134;50.952;6.930;2023-12-20T00:48:16;8.60;99.90
19945;DHT22;10134;50.952;6.930;2023-12-20T00:50:45;8.60;99.90
19945;DHT22;10134;50.952;6.930;2023-12-20T00:53:14;8.60;99.90
19945;DHT22;10134;50.952;6.930;2023-12-20T00:55:43;8.60;99.90
19945;DHT22;10134;50.952;6.930;2023-12-20T00:58:12;8.60;99.90
19945;DHT22;10134;50.952;6.930;2023-12-20T01:00:43;8.50;99.90
19945;DHT22;10134;50.952;6.930;2023-12-20T01:03:13;8.50;99.90
19945;DHT22;10134;50.952;6.930;2023-12-20T01:05:42;8.50;99.90
19945;DHT22;10134;50.952;6.930;2023-12-20T01:08:11;8.50;99.90
19945;DHT22;10134;50.952;6.930;2023-12-20T01:10:40;8.50;99.90
19945;DHT22;10134;50.952;6.930;2023-12-20T01:13:08;8.50;99.90
19945;DHT22;10134;50.952;6.930;2023-12-20T01:15:37;8.50;99.90
19945;DHT22;10134;50.952;6.930;2023-12-20T01:18:06;8.50;99.90
19945;DHT22;10134;50.952;6.930;2023-12-20T01:20:36;8.50;99.90
19945;DHT22;10134;50.952;6.930;2023-12-20T01:23:05;8.50;99.90
19945;DHT22;10134;50.952;6.930;2023-12-20T01:25:34;8.40;99.90
19945;DHT22;10134;50.952;6.930;2023-12-20T01:28:03;8.40;99.90
19945;DHT22;10134;50.952;6.930;2023-12-20T01:30:32;8.40;99.90
19945;DHT22;10134;50.952;6.930;2023-12-20T01:33:01;8.40;99.90
19945;DHT22;10134;50.952;6.930;2023-12-20T01:35:29;8.40;99.90
19945;DHT22;10134;50.952;6.930;2023-12-20T01:37:59;8.40;99.90
19945;DHT22;10134;50.952;6.930;2023-12-20T01:40:28;8.40;99.90
19945;DHT22;10134;50.952;6.930;2023-12-20T01:43:00;8.40;99.90
19945;DHT22;10134;50.952;6.930;2023-12-20T01:45:29;8.40;99.90
19945;DHT22;10134;50.952;6.930;2023-12-20T01:47:59;8.40;99.90
19945;DHT22;10134;50.952;6.930;2023-12-20T01:50:29;8.30;99.90
19945;DHT22;10134;50.952;6.930;2023-12-20T01:53:01;8.30;99.90
19945;DHT22;10134;50.952;6.930;2023-12-20T01:55:33;8.30;99.90
19945;DHT22;10134;50.952;6.930;2023-12-20T01:58:03;8.30;99.90
19945;DHT22;10134;50.952;6.930;2023-12-20T02:00:33;8.30;99.90
19945;DHT22;10134;50.952;6.930;2023-12-20T02:03:03;8.30;99.90
19945;DHT22;10134;50.952;6.930;2023-12-20T02:05:33;8.30;99.90
19945;DHT22;10134;50.952;6.930;2023-12-20T02:08:04;8.30;99.90
19945;DHT22;10134;50.952;6.930;2023-12-20T02:10:33;8.30;99.90
19945;DHT22;10134;50.952;6.930;2023-12-20T02:13:03;8.20;99.90
19945;DHT22;10134;50.952;6.930;2023-12-20T02:15:32;8.20;99.90
19945;DHT22;10134;50.952;6.930;2023-12-20T02:18:01;8.20;99.90
19945;DHT22;10134;50.952;6.930;2023-12-20T02:20:30;8.10;99.90
19945;DHT22;10134;50.952;6.930;2023-12-20T02:23:00;8.10;99.90
19945;DHT22;10134;50.952;6.930;2023-12-20T02:25:27;8.10;99.90
19945;DHT22;10134;50.952;6.930;2023-12-20T02:27:56;8.10;99.90
19945;DHT22;10134;50.952;6.930;2023-12-20T02:30:25;8.00;99.90
19945;DHT22;10134;50.952;6.930;2023-12-20T02:32:54;8.00;99.90
19945;DHT22;10134;50.952;6.930;2023-12-20T02:35:23;7.90;99.90
19945;DHT22;10134;50.952;6.930;2023-12-20T02:37:52;7.90;99.90
19945;DHT22;10134;50.952;6.930;2023-12-20T02:40:22;7.90;99.90
19945;DHT22;10134;50.952;6.930;2023-12-20T02:42:50;7.90;99.90
19945;DHT22;10134;50.952;6.930;2023-12-20T02:45:19;7.90;99.90
19945;DHT22;10134;50.952;6.930;2023-12-20T02:47:48;7.80;99.90
19945;DHT22;10134;50.952;6.930;2023-12-20T02:50:16;7.80;99.90
19945;DHT22;10134;50.952;6.930;2023-12-20T02:52:45;7.80;99.90
19945;DHT22;10134;50.952;6.930;2023-12-20T02:55:14;7.80;99.90
19945;DHT22;10134;50.952;6.930;2023-12-20T02:57:44;7.80;99.90
19945;DHT22;10134;50.952;6.930;2023-12-20T03:00:14;7.70;99.90
19945;DHT22;10134;50.952;6.930;2023-12-20T03:02:42;7.70;99.90
19945;DHT22;10134;50.952;6.930;2023-12-20T03:05:11;7.70;99.90
19945;DHT22;10134;50.952;6.930;2023-12-20T03:07:40;7.70;99.90
19945;DHT22;10134;50.952;6.930;2023-12-20T03:10:09;7.70;99.90
19945;DHT22;10134;50.952;6.930;2023-12-20T03:12:51;7.70;99.90
19945;DHT22;10134;50.952;6.930;2023-12-20T03:15:20;7.70;99.90
19945;DHT22;10134;50.952;6.930;2023-12-20T03:17:48;7.60;99.90
19945;DHT22;10134;50.952;6.930;2023-12-20T03:20:18;7.60;99.90
19945;DHT22;10134;50.952;6.930;2023-12-20T03:22:46;7.60;99.90
19945;DHT22;10134;50.952;6.930;2023-12-20T03:25:15;7.60;99.90
19945;DHT22;10134;50.952;6.930;2023-12-20T03:27:43;7.60;99.90
19945;DHT22;10134;50.952;6.930;2023-12-20T03:30:14;7.60;99.90
19945;DHT22;10134;50.952;6.930;2023-12-20T03:32:44;7.60;99.90
19945;DHT22;10134;50.952;6.930;2023-12-20T03:35:13;7.60;99.90
19945;DHT22;10134;50.952;6.930;2023-12-20T03:37:41;7.60;99.90
19945;DHT22;10134;50.952;6.930;2023-12-20T03:40:11;7.60;99.90
19945;DHT22;10134;50.952;6.930;2023-12-20T03:42:39;7.60;99.90
19945;DHT22;10134;50.952;6.930;2023-12-20T03:45:09;7.60;99.90
19945;DHT22;10134;50.952;6.930;2023-12-20T03:47:39;7.60;99.90
19945;DHT22;10134;50.952;6.930;2023-12-20T03:50:08;7.60;99.90
19945;DHT22;10134;50.952;6.930;2023-12-20T03:52:37;7.60;99.90
19945;DHT22;10134;50.952;6.930;2023-12-20T03:55:06;7.60;99.90
19945;DHT22;10134;50.952;6.930;2023-12-20T03:57:35;7.60;99.90
19945;DHT22;10134;50.952;6.930;2023-12-20T04:00:05;7.60;99.90
19945;DHT22;10134;50.952;6.930;2023-12-20T04:02:42;7.60;99.90
19945;DHT22;10134;50.952;6.930;2023-12-20T04:05:11;7.60;99.90
19945;DHT22;10134;50.952;6.930;2023-12-20T04:07:39;7.60;99.90
19945;DHT22;10134;50.952;6.930;2023-12-20T04:10:09;7.60;99.90
19945;DHT22;10134;50.952;6.930;2023-12-20T04:12:38;7.60;99.90
19945;DHT22;10134;50.952;6.930;2023-12-20T04:15:07;7.50;99.90
19945;DHT22;10134;50.952;6.930;2023-12-20T04:17:39;7.60;99.90
19945;DHT22;10134;50.952;6.930;2023-12-20T04:20:10;7.60;99.90
19945;DHT22;10134;50.952;6.930;2023-12-20T04:22:39;7.60;99.90
19945;DHT22;10134;50.952;6.930;2023-12-20T04:25:08;7.50;99.90
19945;DHT22;10134;50.952;6.930;2023-12-20T04:27:37;7.50;99.90
19945;DHT22;10134;50.952;6.930;2023-12-20T04:30:07;7.60;99.90
19945;DHT22;10134;50.952;6.930;2023-12-20T04:32:36;7.60;99.90
19945;DHT22;10134;50.952;6.930;2023-12-20T04:35:05;7.50;99.90
19945;DHT22;10134;50.952;6.930;2023-12-20T04:37:37;7.50;99.90
19945;DHT22;10134;50.952;6.930;2023-12-20T04:40:07;7.50;99.90
19945;DHT22;10134;50.952;6.930;2023-12-20T04:42:35;7.50;99.90
19945;DHT22;10134;50.952;6.930;2023-12-20T04:45:05;7.50;99.90
19945;DHT22;10134;50.952;6.930;2023-12-20T04:47:34;7.50;99.90
19945;DHT22;10134;50.952;6.930;2023-12-20T04:50:03;7.50;99.90
19945;DHT22;10134;50.952;6.930;2023-12-20T04:52:33;7.50;99.90
19945;DHT22;10134;50.952;6.930;2023-12-20T04:55:03;7.50;99.90
19945;DHT22;10134;50.952;6.930;2023-12-20T04:57:32;7.50;99.90
19945;DHT22;10134;50.952;6.930;2023-12-20T05:00:01;7.50;99.90
19945;DHT22;10134;50.952;6.930;2023-12-20T05:02:31;7.50;99.90
19945;DHT22;10134;50.952;6.930;2023-12-20T05:04:59;7.50;99.90
19945;DHT22;10134;50.952;6.930;2023-12-20T05:07:28;7.50;99.90
19945;DHT22;10134;50.952;6.930;2023-12-20T05:09:57;7.50;99.90
19945;DHT22;10134;50.952;6.930;2023-12-20T05:12:27;7.50;99.90
19945;DHT22;10134;50.952;6.930;2023-12-20T05:14:56;7.50;99.90
19945;DHT22;10134;50.952;6.930;2023-12-20T05:17:24;7.40;99.90
19945;DHT22;10134;50.952;6.930;2023-12-20T05:19:53;7.40;99.90
19945;DHT22;10134;50.952;6.930;2023-12-20T05:22:22;7.40;99.90
19945;DHT22;10134;50.952;6.930;2023-12-20T05:24:51;7.40;99.90
19945;DHT22;10134;50.952;6.930;2023-12-20T05:27:19;7.40;99.90
19945;DHT22;10134;50.952;6.930;2023-12-20T05:29:49;7.40;99.90
19945;DHT22;10134;50.952;6.930;2023-12-20T05:32:18;7.40;99.90
19945;DHT22;10134;50.952;6.930;2023-12-20T05:34:47;7.40;99.90
19945;DHT22;10134;50.952;6.930;2023-12-20T05:37:16;7.40;99.90
19945;DHT22;10134;50.952;6.930;2023-12-20T05:39:45;7.30;99.90
19945;DHT22;10134;50.952;6.930;2023-12-20T05:42:13;7.40;99.90
19945;DHT22;10134;50.952;6.930;2023-12-20T05:44:42;7.30;99.90
19945;DHT22;10134;50.952;6.930;2023-12-20T05:47:12;7.30;99.90
19945;DHT22;10134;50.952;6.930;2023-12-20T05:49:41;7.30;99.90
19945;DHT22;10134;50.952;6.930;2023-12-20T05:52:10;7.30;99.90
19945;DHT22;10134;50.952;6.930;2023-12-20T05:54:38;7.30;99.90
19945;DHT22;10134;50.952;6.930;2023-12-20T05:57:07;7.30;99.90
19945;DHT22;10134;50.952;6.930;2023-12-20T05:59:36;7.30;99.90
19945;DHT22;10134;50.952;6.930;2023-12-20T06:02:05;7.30;99.90
19945;DHT22;10134;50.952;6.930;2023-12-20T06:04:35;7.30;99.90
19945;DHT22;10134;50.952;6.930;2023-12-20T06:07:04;7.30;99.90
19945;DHT22;10134;50.952;6.930;2023-12-20T06:09:33;7.30;99.90
19945;DHT22;10134;50.952;6.930;2023-12-20T06:12:01;7.30;99.90
19945;DHT22;10134;50.952;6.930;2023-12-20T06:14:30;7.30;99.90
19945;DHT22;10134;50.952;6.930;2023-12-20T06:16:59;7.30;99.90
19945;DHT22;10134;50.952;6.930;2023-12-20T06:19:28;7.30;99.90
19945;DHT22;10134;50.952;6.930;2023-12-20T06:21:59;7.30;99.90
19945;DHT22;10134;50.952;6.930;2023-12-20T06:24:27;7.30;99.90
19945;DHT22;10134;50.952;6.930;2023-12-20T06:26:57;7.30;99.90
19945;DHT22;10134;50.952;6.930;2023-12-20T06:29:26;7.30;99.90
19945;DHT22;10134;50.952;6.930;2023-12-20T06:31:55;7.30;99.90
19945;DHT22;10134;50.952;6.930;2023-12-20T06:34:24;7.30;99.90
19945;DHT22;10134;50.952;6.930;2023-12-20T06:36:53;7.30;99.90
19945;DHT22;10134;50.952;6.930;2023-12-20T06:39:23;7.30;99.90
19945;DHT22;10134;50.952;6.930;2023-12-20T06:41:52;7.30;99.90
19945;DHT22;10134;50.952;6.930;2023-12-20T06:44:20;7.30;99.90
19945;DHT22;10134;50.952;6.930;2023-12-20T06:46:49;7.30;99.90
19945;DHT22;10134;50.952;6.930;2023-12-20T06:49:18;7.30;99.90
19945;DHT22;10134;50.952;6.930;2023-12-20T06:51:47;7.30;99.90
19945;DHT22;10134;50.952;6.930;2023-12-20T06:54:15;7.40;99.90
19945;DHT22;10134;50.952;6.930;2023-12-20T06:56:45;7.40;99.90
19945;DHT22;10134;50.952;6.930;2023-12-20T06:59:14;7.40;99.90
19945;DHT22;10134;50.952;6.930;2023-12-20T07:01:47;7.40;99.90
19945;DHT22;10134;50.952;6.930;2023-12-20T07:04:16;7.40;99.90
19945;DHT22;10134;50.952;6.930;2023-12-20T07:06:48;7.40;99.90
19945;DHT22;10134;50.952;6.930;2023-12-20T07:09:19;7.40;99.90
19945;DHT22;10134;50.952;6.930;2023-12-20T07:11:49;7.40;99.90
19945;DHT22;10134;50.952;6.930;2023-12-20T07:14:17;7.40;99.90
19945;DHT22;10134;50.952;6.930;2023-12-20T07:16:46;7.40;99.90
19945;DHT22;10134;50.952;6.930;2023-12-20T07:19:15;7.40;99.90
19945;DHT22;10134;50.952;6.930;2023-12-20T07:21:43;7.40;99.90
19945;DHT22;10134;50.952;6.930;2023-12-20T07:24:12;7.50;99.90
19945;DHT22;10134;50.952;6.930;2023-12-20T07:26:41;7.50;99.90
19945;DHT22;10134;50.952;6.930;2023-12-20T07:29:11;7.50;99.90
19945;DHT22;10134;50.952;6.930;2023-12-20T07:31:40;7.50;99.90
19945;DHT22;10134;50.952;6.930;2023-12-20T07:34:09;7.50;99.90
19945;DHT22;10134;50.952;6.930;2023-12-20T07:36:38;7.50;99.90
19945;DHT22;10134;50.952;6.930;2023-12-20T07:39:06;7.50;99.90
19945;DHT22;10134;50.952;6.930;2023-12-20T07:41:35;7.50;99.90
19945;DHT22;10134;50.952;6.930;2023-12-20T07:44:04;7.50;99.90
19945;DHT22;10134;50.952;6.930;2023-12-20T07:46:35;7.50;99.90
19945;DHT22;10134;50.952;6.930;2023-12-20T07:49:05;7.60;99.90
19945;DHT22;10134;50.952;6.930;2023-12-20T07:51:36;7.60;99.90
19945;DHT22;10134;50.952;6.930;2023-12-20T07:54:05;7.60;99.90
19945;DHT22;10134;50.952;6.930;2023-12-20T07:56:35;7.60;99.90
19945;DHT22;10134;50.952;6.930;2023-12-20T07:59:04;7.60;99.90
19945;DHT22;10134;50.952;6.930;2023-12-20T08:01:40;7.60;99.90
19945;DHT22;10134;50.952;6.930;2023-12-20T08:04:09;7.60;99.90
19945;DHT22;10134;50.952;6.930;2023-12-20T08:06:38;7.60;99.90
19945;DHT22;10134;50.952;6.930;2023-12-20T08:09:07;7.60;99.90
19945;DHT22;10134;50.952;6.930;2023-12-20T08:11:36;7.60;99.90
19945;DHT22;10134;50.952;6.930;2023-12-20T08:14:04;7.60;99.90
19945;DHT22;10134;50.952;6.930;2023-12-20T08:16:33;7.60;99.90
19945;DHT22;10134;50.952;6.930;2023-12-20T08:19:04;7.60;99.90
19945;DHT22;10134;50.952;6.930;2023-12-20T08:21:33;7.60;99.90
19945;DHT22;10134;50.952;6.930;2023-12-20T08:24:06;7.60;99.90
19945;DHT22;10134;50.952;6.930;2023-12-20T08:26:35;7.60;99.90
19945;DHT22;10134;50.952;6.930;2023-12-20T08:29:04;7.60;99.90
19945;DHT22;10134;50.952;6.930;2023-12-20T08:31:33;7.60;99.90
19945;DHT22;10134;50.952;6.930;2023-12-20T08:34:03;7.60;99.90
19945;DHT22;10134;50.952;6.930;2023-12-20T08:36:36;7.60;99.90
19945;DHT22;10134;50.952;6.930;2023-12-20T08:39:05;7.60;99.90
19945;DHT22;10134;50.952;6.930;2023-12-20T08:41:36;7.60;99.90
19945;DHT22;10134;50.952;6.930;2023-12-20T08:44:05;7.60;99.90
19945;DHT22;10134;50.952;6.930;2023-12-20T08:46:34;7.60;99.90
19945;DHT22;10134;50.952;6.930;2023-12-20T08:49:05;7.60;99.90
19945;DHT22;10134;50.952;6.930;2023-12-20T08:51:34;7.70;99.90
19945;DHT22;10134;50.952;6.930;2023-12-20T08:54:07;7.70;99.90
19945;DHT22;10134;50.952;6.930;2023-12-20T08:56:36;7.70;99.90
19945;DHT22;10134;50.952;6.930;2023-12-20T08:59:08;7.70;99.90
19945;DHT22;10134;50.952;6.930;2023-12-20T09:01:38;7.70;99.90
19945;DHT22;10134;50.952;6.930;2023-12-20T09:04:08;7.70;99.90
19945;DHT22;10134;50.952;6.930;2023-12-20T09:06:37;7.70;99.90
19945;DHT22;10134;50.952;6.930;2023-12-20T09:09:07;7.70;99.90
19945;DHT22;10134;50.952;6.930;2023-12-20T09:11:43;7.70;99.90
19945;DHT22;10134;50.952;6.930;2023-12-20T09:14:14;7.70;99.90
19945;DHT22;10134;50.952;6.930;2023-12-20T09:16:46;7.70;99.90
19945;DHT22;10134;50.952;6.930;2023-12-20T09:19:17;7.70;99.90
19945;DHT22;10134;50.952;6.930;2023-12-20T09:21:46;7.70;99.90
19945;DHT22;10134;50.952;6.930;2023-12-20T09:24:15;7.70;99.90
19945;DHT22;10134;50.952;6.930;2023-12-20T09:26:47;7.70;99.90
19945;DHT22;10134;50.952;6.930;2023-12-20T09:29:17;7.70;99.90
19945;DHT22;10134;50.952;6.930;2023-12-20T09:31:49;7.70;99.90
19945;DHT22;10134;50.952;6.930;2023-12-20T09:34:20;7.70;99.90
19945;DHT22;10134;50.952;6.930;2023-12-20T09:36:50;7.70;99.90
19945;DHT22;10134;50.952;6.930;2023-12-20T09:39:21;7.70;99.90
19945;DHT22;10134;50.952;6.930;2023-12-20T09:42:00;7.70;99.90
19945;DHT22;10134;50.952;6.930;2023-12-20T09:44:34;7.70;99.90
19945;DHT22;10134;50.952;6.930;2023-12-20T09:47:20;7.70;99.90
19945;DHT22;10134;50.952;6.930;2023-12-20T09:49:54;7.70;99.90
19945;DHT22;10134;50.952;6.930;2023-12-20T09:52:24;7.70;99.90
19945;DHT22;10134;50.952;6.930;2023-12-20T09:54:59;7.70;99.90
19945;DHT22;10134;50.952;6.930;2023-12-20T09:57:29;7.80;99.90
19945;DHT22;10134;50.952;6.930;2023-12-20T09:59:59;7.80;99.90
19945;DHT22;10134;50.952;6.930;2023-12-20T10:02:47;7.80;99.90
19945;DHT22;10134;50.952;6.930;2023-12-20T10:05:26;7.80;99.90
19945;DHT22;10134;50.952;6.930;2023-12-20T10:07:55;7.80;99.90
19945;DHT22;10134;50.952;6.930;2023-12-20T10:10:25;7.80;99.90
19945;DHT22;10134;50.952;6.930;2023-12-20T10:13:11;7.80;99.90
19945;DHT22;10134;50.952;6.930;2023-12-20T10:15:41;7.80;99.90
19945;DHT22;10134;50.952;6.930;2023-12-20T10:18:12;7.80;99.90
19945;DHT22;10134;50.952;6.930;2023-12-20T10:20:45;7.80;99.90
19945;DHT22;10134;50.952;6.930;2023-12-20T10:23:15;7.80;99.90
19945;DHT22;10134;50.952;6.930;2023-12-20T10:25:56;7.90;99.90
19945;DHT22;10134;50.952;6.930;2023-12-20T10:28:34;7.90;99.90
19945;DHT22;10134;50.952;6.930;2023-12-20T10:31:07;7.90;99.90
19945;DHT22;10134;50.952;6.930;2023-12-20T10:33:44;7.90;99.90
19945;DHT22;10134;50.952;6.930;2023-12-20T10:36:16;7.90;99.90
19945;DHT22;10134;50.952;6.930;2023-12-20T10:38:49;7.90;99.90
19945;DHT22;10134;50.952;6.930;2023-12-20T10:41:26;7.90;99.90
19945;DHT22;10134;50.952;6.930;2023-12-20T10:44:00;7.90;99.90
19945;DHT22;10134;50.952;6.930;2023-12-20T10:46:30;7.90;99.90
19945;DHT22;10134;50.952;6.930;2023-12-20T10:49:04;7.90;99.90
19945;DHT22;10134;50.952;6.930;2023-12-20T10:52:26;7.90;99.90
19945;DHT22;10134;50.952;6.930;2023-12-20T10:55:01;7.90;99.90
19945;DHT22;10134;50.952;6.930;2023-12-20T10:57:33;7.90;99.90
19945;DHT22;10134;50.952;6.930;2023-12-20T11:00:06;7.90;99.90
19945;DHT22;10134;50.952;6.930;2023-12-20T11:02:39;7.90;99.90
19945;DHT22;10134;50.952;6.930;2023-12-20T11:05:19;7.90;99.90
19945;DHT22;10134;50.952;6.930;2023-12-20T11:08:07;7.90;99.90
19945;DHT22;10134;50.952;6.930;2023-12-20T11:10:51;7.90;99.90
19945;DHT22;10134;50.952;6.930;2023-12-20T11:13:32;7.90;99.90
19945;DHT22;10134;50.952;6.930;2023-12-20T11:16:12;7.90;99.90
19945;DHT22;10134;50.952;6.930;2023-12-20T11:18:42;7.90;99.90
19945;DHT22;10134;50.952;6.930;2023-12-20T11:21:14;7.90;99.90
19945;DHT22;10134;50.952;6.930;2023-12-20T11:23:47;8.00;99.90
19945;DHT22;10134;50.952;6.930;2023-12-20T11:26:27;8.00;99.90
19945;DHT22;10134;50.952;6.930;2023-12-20T11:29:30;8.00;99.90
19945;DHT22;10134;50.952;6.930;2023-12-20T11:32:01;8.00;99.90
19945;DHT22;10134;50.952;6.930;2023-12-20T11:34:36;8.00;99.90
19945;DHT22;10134;50.952;6.930;2023-12-20T11:37:07;8.00;99.90
19945;DHT22;10134;50.952;6.930;2023-12-20T11:40:24;8.00;99.90
19945;DHT22;10134;50.952;6.930;2023-12-20T11:43:30;8.00;99.90
19945;DHT22;10134;50.952;6.930;2023-12-20T11:46:09;8.10;99.90
19945;DHT22;10134;50.952;6.930;2023-12-20T11:48:48;8.10;99.90
19945;DHT22;10134;50.952;6.930;2023-12-20T11:51:25;8.10;99.90
19945;DHT22;10134;50.952;6.930;2023-12-20T11:54:15;8.10;99.90
19945;DHT22;10134;50.952;6.930;2023-12-20T11:56:51;8.10;99.90
19945;DHT22;10134;50.952;6.930;2023-12-20T11:59:21;8.10;99.90
19945;DHT22;10134;50.952;6.930;2023-12-20T12:01:58;8.10;99.90
19945;DHT22;10134;50.952;6.930;2023-12-20T12:04:32;8.10;99.90
19945;DHT22;10134;50.952;6.930;2023-12-20T12:07:10;8.20;99.90
19945;DHT22;10134;50.952;6.930;2023-12-20T12:09:45;8.20;99.90
19945;DHT22;10134;50.952;6.930;2023-12-20T12:12:32;8.20;99.90
19945;DHT22;10134;50.952;6.930;2023-12-20T12:15:35;8.20;99.90
19945;DHT22;10134;50.952;6.930;2023-12-20T12:18:27;8.20;99.90
19945;DHT22;10134;50.952;6.930;2023-12-20T12:25:35;8.20;99.90
19945;DHT22;10134;50.952;6.930;2023-12-20T12:28:47;8.20;99.90
19945;DHT22;10134;50.952;6.930;2023-12-20T12:31:27;8.20;99.90
19945;DHT22;10134;50.952;6.930;2023-12-20T12:34:02;8.20;99.90
19945;DHT22;10134;50.952;6.930;2023-12-20T12:36:35;8.20;99.90
19945;DHT22;10134;50.952;6.930;2023-12-20T12:39:05;8.20;99.90
19945;DHT22;10134;50.952;6.930;2023-12-20T12:41:39;8.20;99.90
19945;DHT22;10134;50.952;6.930;2023-12-20T12:44:13;8.20;99.90
19945;DHT22;10134;50.952;6.930;2023-12-20T12:46:49;8.20;99.90
19945;DHT22;10134;50.952;6.930;2023-12-20T12:49:28;8.20;99.90
19945;DHT22;10134;50.952;6.930;2023-12-20T12:51:59;8.30;99.90
19945;DHT22;10134;50.952;6.930;2023-12-20T12:54:33;8.30;99.90
19945;DHT22;10134;50.952;6.930;2023-12-20T12:57:10;8.30;99.90
19945;DHT22;10134;50.952;6.930;2023-12-20T12:59:49;8.30;99.90
19945;DHT22;10134;50.952;6.930;2023-12-20T13:02:21;8.30;99.90
19945;DHT22;10134;50.952;6.930;2023-12-20T13:04:53;8.30;99.90
19945;DHT22;10134;50.952;6.930;2023-12-20T13:07:23;8.30;99.90
19945;DHT22;10134;50.952;6.930;2023-12-20T13:09:54;8.30;99.90
19945;DHT22;10134;50.952;6.930;2023-12-20T13:12:25;8.30;99.90
19945;DHT22;10134;50.952;6.930;2023-12-20T13:14:55;8.30;99.90
19945;DHT22;10134;50.952;6.930;2023-12-20T13:17:25;8.40;99.90
19945;DHT22;10134;50.952;6.930;2023-12-20T13:19:57;8.40;99.90
19945;DHT22;10134;50.952;6.930;2023-12-20T13:22:28;8.40;99.90
19945;DHT22;10134;50.952;6.930;2023-12-20T13:24:58;8.40;99.90
19945;DHT22;10134;50.952;6.930;2023-12-20T13:27:30;8.40;99.90
19945;DHT22;10134;50.952;6.930;2023-12-20T13:30:03;8.40;99.90
19945;DHT22;10134;50.952;6.930;2023-12-20T13:32:40;8.40;99.90
19945;DHT22;10134;50.952;6.930;2023-12-20T13:35:11;8.40;99.90
19945;DHT22;10134;50.952;6.930;2023-12-20T13:37:41;8.40;99.90
19945;DHT22;10134;50.952;6.930;2023-12-20T13:40:15;8.40;99.90
19945;DHT22;10134;50.952;6.930;2023-12-20T13:42:49;8.40;99.90
19945;DHT22;10134;50.952;6.930;2023-12-20T13:45:20;8.40;99.90
19945;DHT22;10134;50.952;6.930;2023-12-20T13:47:56;8.40;99.90
19945;DHT22;10134;50.952;6.930;2023-12-20T13:50:31;8.40;99.90
19945;DHT22;10134;50.952;6.930;2023-12-20T13:53:01;8.50;99.90
19945;DHT22;10134;50.952;6.930;2023-12-20T13:55:35;8.50;99.90
19945;DHT22;10134;50.952;6.930;2023-12-20T13:58:10;8.40;99.90
19945;DHT22;10134;50.952;6.930;2023-12-20T14:00:42;8.50;99.90
19945;DHT22;10134;50.952;6.930;2023-12-20T14:03:14;8.50;99.90
19945;DHT22;10134;50.952;6.930;2023-12-20T14:05:49;8.50;99.90
19945;DHT22;10134;50.952;6.930;2023-12-20T14:08:20;8.50;99.90
19945;DHT22;10134;50.952;6.930;2023-12-20T14:10:50;8.50;99.90
19945;DHT22;10134;50.952;6.930;2023-12-20T14:13:23;8.50;99.90
19945;DHT22;10134;50.952;6.930;2023-12-20T14:16:01;8.50;99.90
19945;DHT22;10134;50.952;6.930;2023-12-20T14:18:32;8.50;99.90
19945;DHT22;10134;50.952;6.930;2023-12-20T14:21:08;8.50;99.90
19945;DHT22;10134;50.952;6.930;2023-12-20T14:23:37;8.50;99.90
19945;DHT22;10134;50.952;6.930;2023-12-20T14:26:07;8.50;99.90
19945;DHT22;10134;50.952;6.930;2023-12-20T14:28:46;8.50;99.90
19945;DHT22;10134;50.952;6.930;2023-12-20T14:31:17;8.50;99.90
19945;DHT22;10134;50.952;6.930;2023-12-20T14:33:45;8.50;99.90
19945;DHT22;10134;50.952;6.930;2023-12-20T14:36:14;8.50;99.90
19945;DHT22;10134;50.952;6.930;2023-12-20T14:38:45;8.50;99.90
19945;DHT22;10134;50.952;6.930;2023-12-20T14:41:14;8.50;99.90
19945;DHT22;10134;50.952;6.930;2023-12-20T14:43:44;8.50;99.90
19945;DHT22;10134;50.952;6.930;2023-12-20T14:46:14;8.50;99.90
19945;DHT22;10134;50.952;6.930;2023-12-20T14:48:44;8.50;99.90
19945;DHT22;10134;50.952;6.930;2023-12-20T14:51:13;8.50;99.90
19945;DHT22;10134;50.952;6.930;2023-12-20T14:53:42;8.50;99.90
19945;DHT22;10134;50.952;6.930;2023-12-20T14:56:11;8.50;99.90
19945;DHT22;10134;50.952;6.930;2023-12-20T14:58:39;8.60;99.90
19945;DHT22;10134;50.952;6.930;2023-12-20T15:01:08;8.60;99.90
19945;DHT22;10134;50.952;6.930;2023-12-20T15:03:37;8.60;99.90
19945;DHT22;10134;50.952;6.930;2023-12-20T15:06:12;8.60;99.90
19945;DHT22;10134;50.952;6.930;2023-12-20T15:08:41;8.60;99.90
19945;DHT22;10134;50.952;6.930;2023-12-20T15:11:11;8.60;99.90
19945;DHT22;10134;50.952;6.930;2023-12-20T15:13:40;8.60;99.90
19945;DHT22;10134;50.952;6.930;2023-12-20T15:16:09;8.60;99.90
19945;DHT22;10134;50.952;6.930;2023-12-20T15:18:38;8.60;99.90
19945;DHT22;10134;50.952;6.930;2023-12-20T15:21:07;8.60;99.90
19945;DHT22;10134;50.952;6.930;2023-12-20T15:23:37;8.60;99.90
19945;DHT22;10134;50.952;6.930;2023-12-20T15:26:06;8.60;99.90
19945;DHT22;10134;50.952;6.930;2023-12-20T15:28:34;8.70;99.90
19945;DHT22;10134;50.952;6.930;2023-12-20T15:31:04;8.60;99.90
19945;DHT22;10134;50.952;6.930;2023-12-20T15:33:34;8.60;99.90
19945;DHT22;10134;50.952;6.930;2023-12-20T15:36:03;8.60;99.90
19945;DHT22;10134;50.952;6.930;2023-12-20T15:38:32;8.60;99.90
19945;DHT22;10134;50.952;6.930;2023-12-20T15:41:03;8.60;99.90
19945;DHT22;10134;50.952;6.930;2023-12-20T15:43:32;8.60;99.90
19945;DHT22;10134;50.952;6.930;2023-12-20T15:46:01;8.60;99.90
19945;DHT22;10134;50.952;6.930;2023-12-20T15:48:32;8.60;99.90
19945;DHT22;10134;50.952;6.930;2023-12-20T15:51:04;8.60;99.90
19945;DHT22;10134;50.952;6.930;2023-12-20T15:53:33;8.60;99.90
19945;DHT22;10134;50.952;6.930;2023-12-20T15:56:03;8.60;99.90
19945;DHT22;10134;50.952;6.930;2023-12-20T15:58:38;8.60;99.90
19945;DHT22;10134;50.952;6.930;2023-12-20T16:01:13;8.60;99.90
19945;DHT22;10134;50.952;6.930;2023-12-20T16:03:45;8.60;99.90
19945;DHT22;10134;50.952;6.930;2023-12-20T16:06:25;8.60;99.90
19945;DHT22;10134;50.952;6.930;2023-12-20T16:08:58;8.60;99.90
19945;DHT22;10134;50.952;6.930;2023-12-20T16:11:32;8.60;99.90
19945;DHT22;10134;50.952;6.930;2023-12-20T16:14:05;8.60;99.90
19945;DHT22;10134;50.952;6.930;2023-12-20T16:16:34;8.60;99.90